Winterswijk, Netherlands
Current Conditions -  °F | °C
As of 8:50 PM on Sunday 25 Jan 2015 (Local Time) from EDLV Reporting Station
Light Rain Light Rain  
Wind Chill: 32°   Ceiling: 2100
Heat Index: 37°   Visibility: 1.6mi
Dew Point: 37°   Wind: 7mph
Humidity: 100%   Direction: 210°SSW
Pressure: 30.36"   Gusts: NA
Location:  51.97°N, 6.72°E
Report Text: EDLV 251950Z 21006KT 2700 -RA BR BKN021 03/03 Q1028
Loading
Personal Weather Stations






























Interactive Weather Map New forecast layout! Learn more

10-Day Weather Forecast

Advertisements
Track Severe Weather on mobile